sensor_id;sensor_type;location;lat;lon;timestamp;P1;durP1;ratioP1;P2;durP2;ratioP2
19848;SDS011;10085;51.120;6.956;2022-12-07T00:01:16;6.05;;;3.95;;
19848;SDS011;10085;51.120;6.956;2022-12-07T00:06:20;7.28;;;4.32;;
19848;SDS011;10085;51.120;6.956;2022-12-07T00:11:23;7.35;;;4.18;;
19848;SDS011;10085;51.120;6.956;2022-12-07T00:16:28;6.38;;;4.30;;
19848;SDS011;10085;51.120;6.956;2022-12-07T00:21:33;6.70;;;3.97;;
19848;SDS011;10085;51.120;6.956;2022-12-07T00:26:37;6.78;;;4.68;;
19848;SDS011;10085;51.120;6.956;2022-12-07T00:31:42;5.13;;;3.95;;
19848;SDS011;10085;51.120;6.956;2022-12-07T00:36:45;6.40;;;4.20;;
19848;SDS011;10085;51.120;6.956;2022-12-07T00:41:48;6.93;;;4.00;;
19848;SDS011;10085;51.120;6.956;2022-12-07T00:46:52;5.70;;;3.92;;
19848;SDS011;10085;51.120;6.956;2022-12-07T00:51:55;6.05;;;4.07;;
19848;SDS011;10085;51.120;6.956;2022-12-07T00:56:58;6.25;;;4.25;;
19848;SDS011;10085;51.120;6.956;2022-12-07T01:02:02;6.30;;;4.20;;
19848;SDS011;10085;51.120;6.956;2022-12-07T01:07:05;9.50;;;4.20;;
19848;SDS011;10085;51.120;6.956;2022-12-07T01:12:07;6.72;;;4.43;;
19848;SDS011;10085;51.120;6.956;2022-12-07T01:17:11;7.43;;;4.38;;
19848;SDS011;10085;51.120;6.956;2022-12-07T01:22:14;6.40;;;4.22;;
19848;SDS011;10085;51.120;6.956;2022-12-07T01:27:17;6.28;;;4.07;;
19848;SDS011;10085;51.120;6.956;2022-12-07T01:32:21;7.97;;;4.13;;
19848;SDS011;10085;51.120;6.956;2022-12-07T01:37:24;6.32;;;4.10;;
19848;SDS011;10085;51.120;6.956;2022-12-07T01:42:26;8.30;;;4.60;;
19848;SDS011;10085;51.120;6.956;2022-12-07T01:47:32;6.47;;;4.70;;
19848;SDS011;10085;51.120;6.956;2022-12-07T01:52:34;7.68;;;4.40;;
19848;SDS011;10085;51.120;6.956;2022-12-07T01:57:39;7.60;;;4.38;;
19848;SDS011;10085;51.120;6.956;2022-12-07T02:02:46;6.68;;;4.55;;
19848;SDS011;10085;51.120;6.956;2022-12-07T02:07:51;6.90;;;4.55;;
19848;SDS011;10085;51.120;6.956;2022-12-07T02:12:56;6.75;;;4.50;;
19848;SDS011;10085;51.120;6.956;2022-12-07T02:18:04;6.60;;;4.40;;
19848;SDS011;10085;51.120;6.956;2022-12-07T02:23:23;7.35;;;4.57;;
19848;SDS011;10085;51.120;6.956;2022-12-07T02:28:35;6.82;;;4.50;;
19848;SDS011;10085;51.120;6.956;2022-12-07T02:33:41;6.97;;;4.78;;
19848;SDS011;10085;51.120;6.956;2022-12-07T02:38:49;7.25;;;4.90;;
19848;SDS011;10085;51.120;6.956;2022-12-07T02:43:54;7.28;;;4.70;;
19848;SDS011;10085;51.120;6.956;2022-12-07T02:48:59;7.47;;;4.88;;
19848;SDS011;10085;51.120;6.956;2022-12-07T02:54:07;7.32;;;5.47;;
19848;SDS011;10085;51.120;6.956;2022-12-07T02:59:14;7.68;;;5.07;;
19848;SDS011;10085;51.120;6.956;2022-12-07T03:04:24;8.90;;;5.00;;
19848;SDS011;10085;51.120;6.956;2022-12-07T03:09:35;8.35;;;4.90;;
19848;SDS011;10085;51.120;6.956;2022-12-07T03:14:41;7.05;;;4.90;;
19848;SDS011;10085;51.120;6.956;2022-12-07T03:19:49;8.10;;;5.40;;
19848;SDS011;10085;51.120;6.956;2022-12-07T03:24:54;8.20;;;5.40;;
19848;SDS011;10085;51.120;6.956;2022-12-07T03:30:00;7.72;;;5.28;;
19848;SDS011;10085;51.120;6.956;2022-12-07T03:35:07;7.85;;;5.13;;
19848;SDS011;10085;51.120;6.956;2022-12-07T03:40:14;8.15;;;5.20;;
19848;SDS011;10085;51.120;6.956;2022-12-07T03:45:20;7.28;;;4.88;;
19848;SDS011;10085;51.120;6.956;2022-12-07T03:50:28;7.15;;;4.95;;
19848;SDS011;10085;51.120;6.956;2022-12-07T03:55:34;7.45;;;5.10;;
19848;SDS011;10085;51.120;6.956;2022-12-07T04:00:38;7.78;;;5.10;;
19848;SDS011;10085;51.120;6.956;2022-12-07T04:05:42;8.23;;;5.43;;
19848;SDS011;10085;51.120;6.956;2022-12-07T04:10:45;8.00;;;5.43;;
19848;SDS011;10085;51.120;6.956;2022-12-07T04:15:48;9.32;;;5.80;;
19848;SDS011;10085;51.120;6.956;2022-12-07T04:20:52;8.27;;;5.55;;
19848;SDS011;10085;51.120;6.956;2022-12-07T04:25:55;8.30;;;5.68;;
19848;SDS011;10085;51.120;6.956;2022-12-07T04:30:58;9.25;;;6.03;;
19848;SDS011;10085;51.120;6.956;2022-12-07T04:36:02;10.20;;;5.75;;
19848;SDS011;10085;51.120;6.956;2022-12-07T04:41:05;9.60;;;5.93;;
19848;SDS011;10085;51.120;6.956;2022-12-07T04:46:08;9.85;;;5.97;;
19848;SDS011;10085;51.120;6.956;2022-12-07T04:51:12;10.32;;;6.30;;
19848;SDS011;10085;51.120;6.956;2022-12-07T04:56:16;9.45;;;6.07;;
19848;SDS011;10085;51.120;6.956;2022-12-07T05:01:19;10.30;;;6.15;;
19848;SDS011;10085;51.120;6.956;2022-12-07T05:06:23;11.32;;;6.47;;
19848;SDS011;10085;51.120;6.956;2022-12-07T05:11:26;9.60;;;6.38;;
19848;SDS011;10085;51.120;6.956;2022-12-07T05:16:42;9.88;;;6.00;;
19848;SDS011;10085;51.120;6.956;2022-12-07T05:21:46;9.63;;;6.25;;
19848;SDS011;10085;51.120;6.956;2022-12-07T05:26:49;11.82;;;6.78;;
19848;SDS011;10085;51.120;6.956;2022-12-07T05:31:52;10.45;;;6.70;;
19848;SDS011;10085;51.120;6.956;2022-12-07T05:36:56;11.32;;;6.30;;
19848;SDS011;10085;51.120;6.956;2022-12-07T05:41:59;9.88;;;6.43;;
19848;SDS011;10085;51.120;6.956;2022-12-07T05:47:16;8.30;;;5.68;;
19848;SDS011;10085;51.120;6.956;2022-12-07T05:52:20;10.20;;;5.60;;
19848;SDS011;10085;51.120;6.956;2022-12-07T05:57:22;10.57;;;6.28;;
19848;SDS011;10085;51.120;6.956;2022-12-07T06:02:25;11.00;;;6.15;;
19848;SDS011;10085;51.120;6.956;2022-12-07T06:07:29;9.60;;;6.28;;
19848;SDS011;10085;51.120;6.956;2022-12-07T06:12:32;9.10;;;6.25;;
19848;SDS011;10085;51.120;6.956;2022-12-07T06:17:40;10.32;;;6.13;;
19848;SDS011;10085;51.120;6.956;2022-12-07T06:22:44;9.68;;;6.28;;
19848;SDS011;10085;51.120;6.956;2022-12-07T06:27:47;8.80;;;5.93;;
19848;SDS011;10085;51.120;6.956;2022-12-07T06:32:50;11.20;;;6.25;;
19848;SDS011;10085;51.120;6.956;2022-12-07T06:37:54;10.68;;;5.68;;
19848;SDS011;10085;51.120;6.956;2022-12-07T06:42:57;9.52;;;5.95;;
19848;SDS011;10085;51.120;6.956;2022-12-07T06:47:59;9.15;;;5.90;;
19848;SDS011;10085;51.120;6.956;2022-12-07T06:53:03;8.38;;;5.60;;
19848;SDS011;10085;51.120;6.956;2022-12-07T06:58:06;7.47;;;5.13;;
19848;SDS011;10085;51.120;6.956;2022-12-07T07:03:09;10.15;;;5.57;;
19848;SDS011;10085;51.120;6.956;2022-12-07T07:08:13;8.73;;;5.78;;
19848;SDS011;10085;51.120;6.956;2022-12-07T07:13:24;8.60;;;5.63;;
19848;SDS011;10085;51.120;6.956;2022-12-07T07:18:27;9.25;;;5.65;;
19848;SDS011;10085;51.120;6.956;2022-12-07T07:23:31;9.70;;;5.10;;
19848;SDS011;10085;51.120;6.956;2022-12-07T07:28:34;7.70;;;5.10;;
19848;SDS011;10085;51.120;6.956;2022-12-07T07:33:37;7.90;;;5.30;;
19848;SDS011;10085;51.120;6.956;2022-12-07T07:38:41;9.68;;;5.35;;
19848;SDS011;10085;51.120;6.956;2022-12-07T07:43:43;8.32;;;5.03;;
19848;SDS011;10085;51.120;6.956;2022-12-07T07:48:46;7.72;;;5.05;;
19848;SDS011;10085;51.120;6.956;2022-12-07T07:53:50;8.00;;;4.95;;
19848;SDS011;10085;51.120;6.956;2022-12-07T07:58:53;8.70;;;5.30;;
19848;SDS011;10085;51.120;6.956;2022-12-07T08:03:56;6.47;;;4.78;;
19848;SDS011;10085;51.120;6.956;2022-12-07T08:09:00;9.55;;;5.45;;
19848;SDS011;10085;51.120;6.956;2022-12-07T08:14:03;8.02;;;4.88;;
19848;SDS011;10085;51.120;6.956;2022-12-07T08:19:06;7.47;;;4.95;;
19848;SDS011;10085;51.120;6.956;2022-12-07T08:24:10;9.15;;;4.93;;
19848;SDS011;10085;51.120;6.956;2022-12-07T08:29:12;6.95;;;4.47;;
19848;SDS011;10085;51.120;6.956;2022-12-07T08:34:15;7.22;;;4.97;;
19848;SDS011;10085;51.120;6.956;2022-12-07T08:39:19;8.45;;;4.55;;
19848;SDS011;10085;51.120;6.956;2022-12-07T08:44:32;7.53;;;4.85;;
19848;SDS011;10085;51.120;6.956;2022-12-07T08:49:36;9.73;;;4.90;;
19848;SDS011;10085;51.120;6.956;2022-12-07T08:54:41;6.03;;;4.30;;
19848;SDS011;10085;51.120;6.956;2022-12-07T08:59:44;6.93;;;4.63;;
19848;SDS011;10085;51.120;6.956;2022-12-07T09:04:47;6.60;;;4.45;;
19848;SDS011;10085;51.120;6.956;2022-12-07T09:09:51;7.00;;;4.32;;
19848;SDS011;10085;51.120;6.956;2022-12-07T09:14:54;14.50;;;4.32;;
19848;SDS011;10085;51.120;6.956;2022-12-07T09:19:56;7.60;;;4.80;;
19848;SDS011;10085;51.120;6.956;2022-12-07T09:25:01;5.95;;;4.38;;
19848;SDS011;10085;51.120;6.956;2022-12-07T09:30:05;8.70;;;4.47;;
19848;SDS011;10085;51.120;6.956;2022-12-07T09:35:09;6.15;;;4.03;;
19848;SDS011;10085;51.120;6.956;2022-12-07T09:40:13;6.68;;;4.30;;
19848;SDS011;10085;51.120;6.956;2022-12-07T09:45:19;7.93;;;4.10;;
19848;SDS011;10085;51.120;6.956;2022-12-07T09:50:25;6.22;;;3.95;;
19848;SDS011;10085;51.120;6.956;2022-12-07T09:55:30;5.68;;;3.85;;
19848;SDS011;10085;51.120;6.956;2022-12-07T10:00:33;6.93;;;4.00;;
19848;SDS011;10085;51.120;6.956;2022-12-07T10:05:37;6.57;;;4.10;;
19848;SDS011;10085;51.120;6.956;2022-12-07T10:10:43;5.72;;;4.03;;
19848;SDS011;10085;51.120;6.956;2022-12-07T10:15:48;6.22;;;3.90;;
19848;SDS011;10085;51.120;6.956;2022-12-07T10:21:00;5.75;;;3.85;;
19848;SDS011;10085;51.120;6.956;2022-12-07T10:26:27;7.18;;;3.90;;
19848;SDS011;10085;51.120;6.956;2022-12-07T10:31:32;6.70;;;3.92;;
19848;SDS011;10085;51.120;6.956;2022-12-07T10:36:41;5.53;;;3.63;;
19848;SDS011;10085;51.120;6.956;2022-12-07T10:41:53;5.90;;;3.72;;
19848;SDS011;10085;51.120;6.956;2022-12-07T10:47:00;7.70;;;3.67;;
19848;SDS011;10085;51.120;6.956;2022-12-07T10:52:10;5.63;;;3.83;;
19848;SDS011;10085;51.120;6.956;2022-12-07T10:57:25;6.30;;;3.90;;
19848;SDS011;10085;51.120;6.956;2022-12-07T11:02:40;5.80;;;3.70;;
19848;SDS011;10085;51.120;6.956;2022-12-07T11:07:54;5.40;;;3.58;;
19848;SDS011;10085;51.120;6.956;2022-12-07T11:13:08;7.18;;;3.90;;
19848;SDS011;10085;51.120;6.956;2022-12-07T11:18:26;6.30;;;3.83;;
19848;SDS011;10085;51.120;6.956;2022-12-07T11:23:32;7.07;;;3.55;;
19848;SDS011;10085;51.120;6.956;2022-12-07T11:28:59;6.13;;;3.72;;
19848;SDS011;10085;51.120;6.956;2022-12-07T11:34:13;4.53;;;3.40;;
19848;SDS011;10085;51.120;6.956;2022-12-07T11:39:22;6.50;;;3.70;;
19848;SDS011;10085;51.120;6.956;2022-12-07T11:44:31;4.50;;;3.40;;
19848;SDS011;10085;51.120;6.956;2022-12-07T11:49:39;5.45;;;3.65;;
19848;SDS011;10085;51.120;6.956;2022-12-07T11:54:43;5.47;;;3.50;;
19848;SDS011;10085;51.120;6.956;2022-12-07T11:59:50;4.88;;;3.22;;
19848;SDS011;10085;51.120;6.956;2022-12-07T12:04:55;5.93;;;3.63;;
19848;SDS011;10085;51.120;6.956;2022-12-07T12:10:06;5.13;;;3.63;;
19848;SDS011;10085;51.120;6.956;2022-12-07T12:15:20;4.80;;;3.50;;
19848;SDS011;10085;51.120;6.956;2022-12-07T12:20:29;5.10;;;3.58;;
19848;SDS011;10085;51.120;6.956;2022-12-07T12:25:36;6.30;;;3.72;;
19848;SDS011;10085;51.120;6.956;2022-12-07T12:30:43;5.78;;;3.58;;
19848;SDS011;10085;51.120;6.956;2022-12-07T12:35:45;5.78;;;3.40;;
19848;SDS011;10085;51.120;6.956;2022-12-07T12:40:48;7.55;;;3.60;;
19848;SDS011;10085;51.120;6.956;2022-12-07T12:45:53;7.35;;;3.60;;
19848;SDS011;10085;51.120;6.956;2022-12-07T12:51:35;5.60;;;3.60;;
19848;SDS011;10085;51.120;6.956;2022-12-07T12:56:40;6.20;;;3.42;;
19848;SDS011;10085;51.120;6.956;2022-12-07T13:01:47;5.63;;;3.45;;
19848;SDS011;10085;51.120;6.956;2022-12-07T13:06:50;6.45;;;3.60;;
19848;SDS011;10085;51.120;6.956;2022-12-07T13:12:03;5.28;;;3.38;;
19848;SDS011;10085;51.120;6.956;2022-12-07T13:17:09;7.40;;;3.70;;
19848;SDS011;10085;51.120;6.956;2022-12-07T13:22:34;5.88;;;3.38;;
19848;SDS011;10085;51.120;6.956;2022-12-07T13:27:54;6.35;;;3.30;;
19848;SDS011;10085;51.120;6.956;2022-12-07T13:33:03;4.75;;;3.03;;
19848;SDS011;10085;51.120;6.956;2022-12-07T13:38:14;6.53;;;3.65;;
19848;SDS011;10085;51.120;6.956;2022-12-07T13:43:22;5.88;;;3.00;;
19848;SDS011;10085;51.120;6.956;2022-12-07T13:48:27;4.35;;;3.05;;
19848;SDS011;10085;51.120;6.956;2022-12-07T13:53:34;6.07;;;3.25;;
19848;SDS011;10085;51.120;6.956;2022-12-07T13:58:49;4.82;;;3.00;;
19848;SDS011;10085;51.120;6.956;2022-12-07T14:03:53;4.63;;;3.05;;
19848;SDS011;10085;51.120;6.956;2022-12-07T14:09:08;5.70;;;3.10;;
19848;SDS011;10085;51.120;6.956;2022-12-07T14:14:17;4.38;;;2.90;;
19848;SDS011;10085;51.120;6.956;2022-12-07T14:24:49;4.50;;;2.85;;
19848;SDS011;10085;51.120;6.956;2022-12-07T14:29:52;5.57;;;3.35;;
19848;SDS011;10085;51.120;6.956;2022-12-07T14:35:00;6.35;;;3.22;;
19848;SDS011;10085;51.120;6.956;2022-12-07T14:40:04;6.25;;;3.42;;
19848;SDS011;10085;51.120;6.956;2022-12-07T14:45:12;5.85;;;2.97;;
19848;SDS011;10085;51.120;6.956;2022-12-07T14:50:18;5.03;;;3.30;;
19848;SDS011;10085;51.120;6.956;2022-12-07T14:55:23;6.70;;;3.00;;
19848;SDS011;10085;51.120;6.956;2022-12-07T15:00:27;5.47;;;3.08;;
19848;SDS011;10085;51.120;6.956;2022-12-07T15:05:32;4.45;;;2.95;;
19848;SDS011;10085;51.120;6.956;2022-12-07T15:10:35;5.72;;;2.88;;
19848;SDS011;10085;51.120;6.956;2022-12-07T15:15:39;4.18;;;2.55;;
19848;SDS011;10085;51.120;6.956;2022-12-07T15:20:44;4.82;;;2.90;;
19848;SDS011;10085;51.120;6.956;2022-12-07T15:25:47;4.15;;;2.80;;
19848;SDS011;10085;51.120;6.956;2022-12-07T15:30:50;4.35;;;2.85;;
19848;SDS011;10085;51.120;6.956;2022-12-07T15:35:55;5.47;;;3.17;;
19848;SDS011;10085;51.120;6.956;2022-12-07T15:40:57;5.78;;;2.90;;
19848;SDS011;10085;51.120;6.956;2022-12-07T15:46:00;3.95;;;2.38;;
19848;SDS011;10085;51.120;6.956;2022-12-07T15:51:05;4.07;;;2.53;;
19848;SDS011;10085;51.120;6.956;2022-12-07T15:56:09;4.20;;;2.40;;
19848;SDS011;10085;51.120;6.956;2022-12-07T16:01:12;4.18;;;2.47;;
19848;SDS011;10085;51.120;6.956;2022-12-07T16:06:17;4.38;;;2.40;;
19848;SDS011;10085;51.120;6.956;2022-12-07T16:11:20;4.18;;;2.60;;
19848;SDS011;10085;51.120;6.956;2022-12-07T16:16:23;5.07;;;2.50;;
19848;SDS011;10085;51.120;6.956;2022-12-07T16:21:27;4.20;;;2.22;;
19848;SDS011;10085;51.120;6.956;2022-12-07T16:26:30;3.45;;;2.20;;
19848;SDS011;10085;51.120;6.956;2022-12-07T16:31:33;3.72;;;2.40;;
19848;SDS011;10085;51.120;6.956;2022-12-07T16:36:37;3.05;;;2.17;;
19848;SDS011;10085;51.120;6.956;2022-12-07T16:42:00;3.58;;;2.20;;
19848;SDS011;10085;51.120;6.956;2022-12-07T16:47:04;3.75;;;2.22;;
19848;SDS011;10085;51.120;6.956;2022-12-07T16:52:08;4.85;;;2.40;;
19848;SDS011;10085;51.120;6.956;2022-12-07T16:57:26;4.35;;;2.20;;
19848;SDS011;10085;51.120;6.956;2022-12-07T17:02:29;2.42;;;1.90;;
19848;SDS011;10085;51.120;6.956;2022-12-07T17:07:33;2.67;;;1.90;;
19848;SDS011;10085;51.120;6.956;2022-12-07T17:12:36;2.65;;;1.88;;
19848;SDS011;10085;51.120;6.956;2022-12-07T17:17:39;3.53;;;2.20;;
19848;SDS011;10085;51.120;6.956;2022-12-07T17:22:43;2.88;;;1.90;;
19848;SDS011;10085;51.120;6.956;2022-12-07T17:27:45;2.58;;;1.83;;
19848;SDS011;10085;51.120;6.956;2022-12-07T17:32:50;4.30;;;2.10;;
19848;SDS011;10085;51.120;6.956;2022-12-07T17:37:55;2.53;;;1.80;;
19848;SDS011;10085;51.120;6.956;2022-12-07T17:42:57;3.50;;;2.10;;
19848;SDS011;10085;51.120;6.956;2022-12-07T17:48:00;3.25;;;2.00;;
19848;SDS011;10085;51.120;6.956;2022-12-07T17:53:05;3.65;;;2.10;;
19848;SDS011;10085;51.120;6.956;2022-12-07T17:58:14;3.22;;;2.00;;
19848;SDS011;10085;51.120;6.956;2022-12-07T18:03:16;3.78;;;1.83;;
19848;SDS011;10085;51.120;6.956;2022-12-07T18:08:20;2.72;;;1.77;;
19848;SDS011;10085;51.120;6.956;2022-12-07T18:13:23;2.58;;;2.00;;
19848;SDS011;10085;51.120;6.956;2022-12-07T18:18:38;3.03;;;1.70;;
19848;SDS011;10085;51.120;6.956;2022-12-07T18:23:44;2.22;;;1.80;;
19848;SDS011;10085;51.120;6.956;2022-12-07T18:28:48;2.35;;;2.05;;
19848;SDS011;10085;51.120;6.956;2022-12-07T18:33:50;2.85;;;1.90;;
19848;SDS011;10085;51.120;6.956;2022-12-07T18:38:57;3.25;;;2.33;;
19848;SDS011;10085;51.120;6.956;2022-12-07T18:44:02;7.50;;;4.80;;
19848;SDS011;10085;51.120;6.956;2022-12-07T18:49:05;16.52;;;8.57;;
19848;SDS011;10085;51.120;6.956;2022-12-07T18:54:09;18.10;;;10.27;;
19848;SDS011;10085;51.120;6.956;2022-12-07T18:59:12;30.05;;;13.30;;
19848;SDS011;10085;51.120;6.956;2022-12-07T19:04:33;26.88;;;14.68;;
19848;SDS011;10085;51.120;6.956;2022-12-07T19:09:37;30.92;;;17.65;;
19848;SDS011;10085;51.120;6.956;2022-12-07T19:14:40;36.47;;;19.58;;
19848;SDS011;10085;51.120;6.956;2022-12-07T19:19:44;42.63;;;22.90;;
19848;SDS011;10085;51.120;6.956;2022-12-07T19:24:49;40.88;;;22.85;;
19848;SDS011;10085;51.120;6.956;2022-12-07T19:29:52;42.13;;;24.20;;
19848;SDS011;10085;51.120;6.956;2022-12-07T19:34:55;43.95;;;25.13;;
19848;SDS011;10085;51.120;6.956;2022-12-07T19:39:59;43.40;;;26.20;;
19848;SDS011;10085;51.120;6.956;2022-12-07T19:45:02;44.55;;;26.38;;
19848;SDS011;10085;51.120;6.956;2022-12-07T19:50:06;46.33;;;27.10;;
19848;SDS011;10085;51.120;6.956;2022-12-07T19:55:11;44.97;;;27.38;;
19848;SDS011;10085;51.120;6.956;2022-12-07T20:00:14;49.28;;;29.45;;
19848;SDS011;10085;51.120;6.956;2022-12-07T20:05:17;49.97;;;28.73;;
19848;SDS011;10085;51.120;6.956;2022-12-07T20:10:21;46.22;;;28.10;;
19848;SDS011;10085;51.120;6.956;2022-12-07T20:15:26;44.20;;;28.08;;
19848;SDS011;10085;51.120;6.956;2022-12-07T20:20:29;47.65;;;28.83;;
19848;SDS011;10085;51.120;6.956;2022-12-07T20:25:35;43.88;;;27.55;;
19848;SDS011;10085;51.120;6.956;2022-12-07T20:30:43;49.28;;;28.27;;
19848;SDS011;10085;51.120;6.956;2022-12-07T20:35:47;47.63;;;27.85;;
19848;SDS011;10085;51.120;6.956;2022-12-07T20:40:51;43.58;;;27.40;;
19848;SDS011;10085;51.120;6.956;2022-12-07T20:45:54;45.50;;;28.67;;
19848;SDS011;10085;51.120;6.956;2022-12-07T20:51:03;43.53;;;27.17;;
19848;SDS011;10085;51.120;6.956;2022-12-07T20:56:15;44.20;;;26.90;;
19848;SDS011;10085;51.120;6.956;2022-12-07T21:01:19;45.45;;;26.65;;
19848;SDS011;10085;51.120;6.956;2022-12-07T21:06:22;43.22;;;25.85;;
19848;SDS011;10085;51.120;6.956;2022-12-07T21:11:28;43.03;;;25.33;;
19848;SDS011;10085;51.120;6.956;2022-12-07T21:16:31;41.05;;;24.42;;
19848;SDS011;10085;51.120;6.956;2022-12-07T21:21:34;35.72;;;22.92;;
19848;SDS011;10085;51.120;6.956;2022-12-07T21:26:38;41.20;;;24.25;;
19848;SDS011;10085;51.120;6.956;2022-12-07T21:31:41;36.85;;;23.17;;
19848;SDS011;10085;51.120;6.956;2022-12-07T21:36:44;34.95;;;22.17;;
19848;SDS011;10085;51.120;6.956;2022-12-07T21:41:48;34.42;;;21.85;;
19848;SDS011;10085;51.120;6.956;2022-12-07T21:46:51;34.60;;;21.60;;
19848;SDS011;10085;51.120;6.956;2022-12-07T21:51:54;36.25;;;21.83;;
19848;SDS011;10085;51.120;6.956;2022-12-07T21:56:58;31.85;;;20.63;;
19848;SDS011;10085;51.120;6.956;2022-12-07T22:02:01;29.45;;;19.00;;
19848;SDS011;10085;51.120;6.956;2022-12-07T22:07:04;31.23;;;18.77;;
19848;SDS011;10085;51.120;6.956;2022-12-07T22:12:08;31.38;;;17.88;;
19848;SDS011;10085;51.120;6.956;2022-12-07T22:17:10;32.03;;;17.63;;
19848;SDS011;10085;51.120;6.956;2022-12-07T22:22:13;29.40;;;17.42;;
19848;SDS011;10085;51.120;6.956;2022-12-07T22:27:17;27.38;;;17.17;;
19848;SDS011;10085;51.120;6.956;2022-12-07T22:32:20;26.98;;;16.58;;
19848;SDS011;10085;51.120;6.956;2022-12-07T22:37:43;29.58;;;16.80;;
19848;SDS011;10085;51.120;6.956;2022-12-07T22:42:47;27.00;;;16.17;;
19848;SDS011;10085;51.120;6.956;2022-12-07T22:47:50;22.90;;;14.95;;
19848;SDS011;10085;51.120;6.956;2022-12-07T22:52:52;24.50;;;14.88;;
19848;SDS011;10085;51.120;6.956;2022-12-07T22:57:57;23.85;;;14.82;;
19848;SDS011;10085;51.120;6.956;2022-12-07T23:03:00;24.20;;;14.60;;
19848;SDS011;10085;51.120;6.956;2022-12-07T23:08:03;23.27;;;13.80;;
19848;SDS011;10085;51.120;6.956;2022-12-07T23:13:07;22.10;;;13.60;;
19848;SDS011;10085;51.120;6.956;2022-12-07T23:18:28;21.73;;;13.77;;
19848;SDS011;10085;51.120;6.956;2022-12-07T23:23:31;23.38;;;12.82;;
19848;SDS011;10085;51.120;6.956;2022-12-07T23:28:35;20.75;;;12.75;;
19848;SDS011;10085;51.120;6.956;2022-12-07T23:33:38;22.02;;;13.10;;
19848;SDS011;10085;51.120;6.956;2022-12-07T23:38:41;23.63;;;13.10;;
19848;SDS011;10085;51.120;6.956;2022-12-07T23:43:46;20.05;;;11.75;;
19848;SDS011;10085;51.120;6.956;2022-12-07T23:48:50;21.98;;;11.93;;
19848;SDS011;10085;51.120;6.956;2022-12-07T23:53:54;20.33;;;11.48;;
19848;SDS011;10085;51.120;6.956;2022-12-07T23:58:58;19.95;;;11.05;;
